Detalii statie TARCEA AGRO TARCEA [0000197E]

Toti senzorii

Date Temperatura solului [C]Precipitatii [mm]Voltaj baterie [mV]Leaf Wetness [Min]HC Air temperature [C]HC Relative humidity [%]Punctul de roua [C]
medieminmaxsumaultimatimpmedieminmaxmediemediemin
2018-10-13 15:00:00 15.2 14.9 15.5 0 7070 23.9 23.59 24.26 33.23 6.5 5.6
2018-10-13 16:00:00 15.7 15.5 16 0 7060 24.05 23.79 24.36 31.52 5.9 5.4
2018-10-13 17:00:00 16.1 16 16.4 0 7088 23.39 22.26 24.07 33.02 5.9 5.6
2018-10-13 18:00:00 16.2 16.2 16.4 0 7020 20.24 18.46 21.91 41.14 6.3 6.2
2018-10-13 19:00:00 16.1 15.9 16.3 0 6942 16.58 15.14 18.17 50.71 6.1 5.9
2018-10-13 20:00:00 15.9 15.7 16.1 0 6874 14.09 13.47 15.11 58.68 5.9 5.7
2018-10-13 21:00:00 15.6 15.3 15.8 0 6854 11.54 10.7 13.19 67.9 5.6 4.8
2018-10-13 22:00:00 15.3 15.1 15.5 0 6834 10.58 9.89 11.03 72.08 5.6 3.9
2018-10-13 23:00:00 15 14.8 15.3 0 6826 9.82 8.91 10.77 75.05 5.4 4.8
2018-10-14 00:00:00 14.7 14.6 14.9 0 6816 8.6 7.02 9.99 78.58 4.9 3.6
2018-10-14 01:00:00 14.4 14.2 14.7 0 6796 7.79 7.24 8.77 82.24 4.8 4.3
2018-10-14 02:00:00 14.1 14.1 14.4 0 6806 7.33 6.7 8.16 84.83 4.8 4
2018-10-14 03:00:00 13.9 13.8 14.1 0 6786 6.36 5.71 7.04 87.99 4.3 4.1
2018-10-14 04:00:00 13.6 13.6 13.8 0 6796 6.16 5.75 6.58 90.06 4.5 4
2018-10-14 05:00:00 13.5 13.4 13.6 0 6786 5.66 4.83 6.29 90.73 4.1 3.2
2018-10-14 06:00:00 13.3 13.1 13.5 0 6786 5.13 4.61 5.63 92.63 3.9 3.4
2018-10-14 07:00:00 13.1 13 13.3 0 6776 4.99 4.55 5.37 93.56 3.9 3.5
2018-10-14 08:00:00 12.9 12.7 13 0 6796 5.41 4.68 6.87 92.57 4.1 3.7
2018-10-14 09:00:00 12.8 12.8 12.9 0 6874 9.52 7.11 11.71 83.22 6.6 5.4
2018-10-14 10:00:00 12.8 12.7 13 0 6962 15.41 11.93 18.37 61.71 7.7 7.1
2018-10-14 11:00:00 13 12.9 13.2 0 7040 19.22 18.71 19.74 42.62 6 4.9
2018-10-14 12:00:00 13.2 13.1 13.5 0 7060 20.57 19.89 21.66 36.92 5.1 4.7
2018-10-14 13:00:00 13.6 13.4 13.9 0 7070 21.92 21.27 22.61 33.76 4.9 4.5
2018-10-14 14:00:00 14.3 14 14.6 0 7050 22.9 22.19 23.5 30.71 4.4 3.9
2018-10-14 15:00:00 14.9 14.6 15.2 0 7098 23.07 22.33 23.68 27.23 2.8 0.7
2018-10-14 16:00:00 15.5 15.2 15.6 0 7088 23.66 23.53 23.92 19.18 -1.3 -2.1
2018-10-14 17:00:00 15.8 15.7 16.1 0 7254 22.81 21.79 23.48 19.96 -1.5 -2.3
2018-10-14 18:00:00 16 15.9 16.1 0 7010 19.35 17.55 21.36 26.58 -0.5 -0.8
2018-10-14 19:00:00 15.8 15.5 16 0 6982 15.05 13.41 17.13 36.76 0.1 -0.2
2018-10-14 20:00:00 15.5 15.3 15.7 0 6914 12.9 11.8 13.33 42.45 0.1 0
2018-10-14 21:00:00 15.2 15.1 15.4 0 6884 11.6 10.78 12.82 47.42 0.6 0.3
2018-10-14 22:00:00 14.8 14.7 15.1 0 6874 9.57 8.41 11.08 54.15 0.5 0.1
2018-10-14 23:00:00 14.5 14.4 14.8 0 6864 7.82 6.63 8.41 60.41 0.4 0.1
2018-10-15 00:00:00 14.3 14.2 14.4 0 6806 6.58 5.94 7.69 65.5 0.4 -0.1
2018-10-15 01:00:00 13.9 13.8 14.1 0 6796 6.31 5.28 7.8 67.22 0.5 0.3
2018-10-15 02:00:00 13.7 13.5 13.8 0 6796 5.52 5.15 6.02 70.41 0.4 -0.2
2018-10-15 03:00:00 13.4 13.3 13.5 0 6786 5.27 4.55 5.92 72.02 0.5 0.1
2018-10-15 04:00:00 13.1 12.9 13.2 0 6796 4.48 3.34 5.41 75.53 0.4 -0.5
2018-10-15 05:00:00 12.9 12.9 13.1 0 6786 4.81 3.48 5.65 73.38 0.3 -0.1
2018-10-15 06:00:00 12.7 12.6 12.9 0 6776 3.49 3.07 3.93 77.98 0 -0.4
2018-10-15 07:00:00 12.5 12.4 12.7 0 6776 4.21 3.13 5.18 76.56 0.3 -0.1
2018-10-15 08:00:00 12.3 12.2 12.5 0 6786 4.49 3.71 5.99 74.98 0.3 -0.4
2018-10-15 09:00:00 12.1 11.9 12.3 0 6864 9.39 6.51 12.02 60.83 1.9 1.6
2018-10-15 10:00:00 12.1 12 12.3 0 6982 14.2 12.44 15.49 43.85 1.8 0.8
2018-10-15 11:00:00 12.3 12.2 12.5 0 7060 17.06 15.63 17.9 34.23 0.9 0.6